createdAt,value
2022-12-27T00:00:15.676Z,41.75
2022-12-27T00:02:42.723Z,41.63
2022-12-27T00:05:10.239Z,41.25
2022-12-27T00:07:37.521Z,39.42
2022-12-27T00:10:06.522Z,39.63
2022-12-27T00:12:34.039Z,40.33
2022-12-27T00:15:01.179Z,41.20
2022-12-27T00:17:28.172Z,40.00
2022-12-27T00:19:55.158Z,38.78
2022-12-27T00:22:22.340Z,38.80
2022-12-27T00:24:49.334Z,39.70
2022-12-27T00:27:16.675Z,40.20
2022-12-27T00:29:43.845Z,40.42
2022-12-27T00:32:10.824Z,39.35
2022-12-27T00:34:37.749Z,38.83
2022-12-27T00:37:04.700Z,39.88
2022-12-27T00:39:31.713Z,39.33
2022-12-27T00:41:58.669Z,39.65
2022-12-27T00:44:25.702Z,38.90
2022-12-27T00:46:52.681Z,40.55
2022-12-27T00:49:19.652Z,39.90
2022-12-27T00:51:46.664Z,39.97
2022-12-27T00:54:13.614Z,39.20
2022-12-27T00:56:40.667Z,40.50
2022-12-27T00:59:08.386Z,37.67
2022-12-27T01:01:36.608Z,39.83
2022-12-27T01:04:04.731Z,39.33
2022-12-27T01:06:33.927Z,38.17
2022-12-27T01:09:02.101Z,40.53
2022-12-27T01:11:29.855Z,38.30
2022-12-27T01:14:01.873Z,37.10
2022-12-27T01:16:30.630Z,38.28
2022-12-27T01:18:58.958Z,38.63
2022-12-27T01:21:27.256Z,39.70
2022-12-27T01:23:55.284Z,37.05
2022-12-27T01:26:24.165Z,38.28
2022-12-27T01:28:52.535Z,38.28
2022-12-27T01:31:26.146Z,37.58
2022-12-27T01:33:59.270Z,39.65
2022-12-27T01:36:28.340Z,36.30
2022-12-27T01:38:58.431Z,37.25
2022-12-27T01:41:45.892Z,38.60
2022-12-27T01:44:37.932Z,37.83
2022-12-27T01:47:26.341Z,39.63
2022-12-27T01:49:53.271Z,39.90
2022-12-27T01:52:22.536Z,40.30
2022-12-27T01:54:49.760Z,37.10
2022-12-27T01:57:16.809Z,38.80
2022-12-27T01:59:43.981Z,37.85
2022-12-27T02:02:11.005Z,39.67
2022-12-27T02:04:38.782Z,40.85
2022-12-27T02:07:05.978Z,40.00
2022-12-27T02:09:49.624Z,40.78
2022-12-27T02:12:18.105Z,43.72
2022-12-27T02:14:49.149Z,41.20
2022-12-27T02:17:27.927Z,42.15
2022-12-27T02:20:00.633Z,40.17
2022-12-27T02:23:22.828Z,40.53
2022-12-27T02:26:05.792Z,41.88
2022-12-27T02:28:48.896Z,40.08
2022-12-27T02:31:24.844Z,40.92
2022-12-27T02:33:53.195Z,39.83
2022-12-27T02:36:31.558Z,38.60
2022-12-27T02:39:01.288Z,41.08
2022-12-27T02:41:50.090Z,38.83
2022-12-27T02:44:39.573Z,38.67
2022-12-27T02:47:38.681Z,38.65
2022-12-27T02:50:25.605Z,37.42
2022-12-27T02:53:18.543Z,38.28
2022-12-27T02:56:37.926Z,40.38
2022-12-27T02:59:24.930Z,37.95
2022-12-27T03:02:27.498Z,41.03
2022-12-27T03:05:21.182Z,41.47
2022-12-27T03:08:12.810Z,43.00
2022-12-27T03:11:30.862Z,42.85
2022-12-27T03:14:28.234Z,40.30
2022-12-27T03:17:02.092Z,40.10
2022-12-27T03:19:58.008Z,39.95
2022-12-27T03:22:47.055Z,36.78
2022-12-27T03:25:31.054Z,38.35
2022-12-27T03:28:19.411Z,39.60
2022-12-27T03:31:08.422Z,42.08
2022-12-27T03:33:38.765Z,36.63
2022-12-27T03:36:34.806Z,36.10
2022-12-27T03:39:30.427Z,36.90
2022-12-27T03:42:35.868Z,36.30
2022-12-27T03:45:02.896Z,36.83
2022-12-27T03:48:00.654Z,37.03
2022-12-27T03:50:42.102Z,36.67
2022-12-27T03:53:14.966Z,34.40
2022-12-27T03:55:42.926Z,33.50
2022-12-27T03:58:10.182Z,32.92
2022-12-27T04:00:37.482Z,32.47
2022-12-27T04:03:04.979Z,33.75
2022-12-27T04:05:32.017Z,32.58
2022-12-27T04:08:17.835Z,31.27
2022-12-27T04:11:03.859Z,31.57
2022-12-27T04:13:49.723Z,31.40
2022-12-27T04:16:35.807Z,31.33
2022-12-27T04:19:21.315Z,29.55
2022-12-27T04:22:06.717Z,29.95
2022-12-27T04:24:53.180Z,30.63
2022-12-27T04:27:38.630Z,30.35
2022-12-27T04:30:24.688Z,29.92
2022-12-27T04:33:10.591Z,31.23
2022-12-27T04:35:37.603Z,27.80
2022-12-27T04:38:04.467Z,29.60
2022-12-27T04:40:49.909Z,27.52
2022-12-27T04:43:35.348Z,27.73
2022-12-27T04:46:20.899Z,30.42
2022-12-27T04:49:06.679Z,29.08
2022-12-27T04:51:51.988Z,26.80
2022-12-27T04:54:39.351Z,27.42
2022-12-27T04:57:06.315Z,28.38
2022-12-27T04:59:51.702Z,27.80
2022-12-27T05:02:19.787Z,28.23
2022-12-27T05:04:48.322Z,28.33
2022-12-27T05:07:34.719Z,26.85
2022-12-27T05:10:23.243Z,27.17
2022-12-27T05:13:08.577Z,27.77
2022-12-27T05:15:35.486Z,27.50
2022-12-27T05:18:02.495Z,27.50
2022-12-27T05:20:29.468Z,25.20
2022-12-27T05:23:14.979Z,26.58
2022-12-27T05:25:43.580Z,25.27
2022-12-27T05:28:11.983Z,27.33
2022-12-27T05:30:43.655Z,24.73
2022-12-27T05:33:10.630Z,23.90
2022-12-27T05:35:37.699Z,25.73
2022-12-27T05:38:05.827Z,23.73
2022-12-27T05:40:33.737Z,23.67
2022-12-27T05:43:02.829Z,23.80
2022-12-27T05:45:30.535Z,22.98
2022-12-27T05:47:59.119Z,23.60
2022-12-27T05:50:26.455Z,22.55
2022-12-27T05:52:53.319Z,23.00
2022-12-27T05:55:20.269Z,23.17
2022-12-27T05:57:47.176Z,23.60
2022-12-27T06:00:14.698Z,23.63
2022-12-27T06:02:42.479Z,24.15
2022-12-27T06:05:10.832Z,23.20
2022-12-27T06:07:38.648Z,23.60
2022-12-27T06:10:07.752Z,23.35
2022-12-27T06:12:35.223Z,23.45
2022-12-27T06:15:02.850Z,23.02
2022-12-27T06:17:30.335Z,23.50
2022-12-27T06:19:57.564Z,23.90
2022-12-27T06:22:24.967Z,22.60
2022-12-27T06:24:52.146Z,21.27
2022-12-27T06:27:19.316Z,21.58
2022-12-27T06:29:46.561Z,21.98
2022-12-27T06:32:13.553Z,20.65
2022-12-27T06:34:40.470Z,21.75
2022-12-27T06:37:07.450Z,22.05
2022-12-27T06:39:34.443Z,21.75
2022-12-27T06:42:01.453Z,21.20
2022-12-27T06:44:28.452Z,22.48
2022-12-27T06:46:55.439Z,23.08
2022-12-27T06:49:22.412Z,22.92
2022-12-27T06:51:55.721Z,23.48
2022-12-27T06:54:26.343Z,21.30
2022-12-27T06:56:53.524Z,21.48
2022-12-27T06:59:20.491Z,21.63
2022-12-27T07:01:47.501Z,21.63
2022-12-27T07:04:14.583Z,22.58
2022-12-27T07:06:41.571Z,22.40
2022-12-27T07:09:08.812Z,22.70
2022-12-27T07:11:37.179Z,20.73
2022-12-27T07:14:04.953Z,19.70
2022-12-27T07:16:32.005Z,20.10
2022-12-27T07:19:00.125Z,22.17
2022-12-27T07:21:29.295Z,22.00
2022-12-27T07:23:56.935Z,21.17
2022-12-27T07:26:28.563Z,20.83
2022-12-27T07:28:58.015Z,21.30
2022-12-27T07:31:27.642Z,20.05
2022-12-27T07:33:54.522Z,22.25
2022-12-27T07:36:24.535Z,22.83
2022-12-27T07:38:51.939Z,23.17
2022-12-27T07:41:19.180Z,22.83
2022-12-27T07:43:46.407Z,23.35
2022-12-27T07:46:19.028Z,24.67
2022-12-27T07:48:47.312Z,23.50
2022-12-27T07:51:16.284Z,25.13
2022-12-27T07:53:43.970Z,23.90
2022-12-27T07:56:21.751Z,24.17
2022-12-27T07:58:54.327Z,26.60
2022-12-27T08:01:22.857Z,27.50
2022-12-27T08:03:50.235Z,29.00
2022-12-27T08:06:29.957Z,29.35
2022-12-27T08:08:59.615Z,31.20
2022-12-27T08:11:27.472Z,30.83
2022-12-27T08:13:54.401Z,31.00
2022-12-27T08:16:24.493Z,30.90
2022-12-27T08:18:53.053Z,32.33
2022-12-27T08:21:20.287Z,32.28
2022-12-27T08:23:47.223Z,30.40
2022-12-27T08:26:14.192Z,32.05
2022-12-27T08:28:41.291Z,33.47
2022-12-27T08:31:10.893Z,31.92
2022-12-27T08:33:38.455Z,31.42
2022-12-27T08:36:22.326Z,31.30
2022-12-27T08:38:55.101Z,29.88
2022-12-27T08:41:23.257Z,30.20
2022-12-27T08:43:50.505Z,31.50
2022-12-27T08:46:19.495Z,30.17
2022-12-27T08:48:50.080Z,29.65
2022-12-27T08:51:28.345Z,30.15
2022-12-27T08:54:00.431Z,32.45
2022-12-27T08:56:27.513Z,29.55
2022-12-27T08:58:54.644Z,31.95
2022-12-27T09:01:22.804Z,31.95
2022-12-27T09:03:49.907Z,31.73
2022-12-27T09:06:19.693Z,33.45
2022-12-27T09:08:48.698Z,33.33
2022-12-27T09:11:25.008Z,32.20
2022-12-27T09:13:52.424Z,31.77
2022-12-27T09:16:22.862Z,32.13
2022-12-27T09:18:52.874Z,34.25
2022-12-27T09:21:21.891Z,30.05
2022-12-27T09:23:49.790Z,30.90
2022-12-27T09:26:24.187Z,32.13
2022-12-27T09:28:51.868Z,30.88
2022-12-27T09:31:20.640Z,32.05
2022-12-27T09:33:47.991Z,32.00
2022-12-27T09:36:20.069Z,33.22
2022-12-27T09:38:48.297Z,31.83
2022-12-27T09:42:11.742Z,27.27
2022-12-27T09:44:18.980Z,23.00
2022-12-27T09:47:19.037Z,25.08
2022-12-27T09:49:50.871Z,23.55
2022-12-27T09:52:34.272Z,23.95
2022-12-27T09:55:05.365Z,24.08
2022-12-27T09:57:44.870Z,23.40
2022-12-27T10:00:34.059Z,24.80
2022-12-27T10:03:05.501Z,23.85
2022-12-27T10:05:35.306Z,24.30
2022-12-27T10:08:05.103Z,24.45
2022-12-27T10:10:58.060Z,24.52
2022-12-27T10:13:41.386Z,25.75
2022-12-27T10:16:26.488Z,25.40
2022-12-27T10:19:22.570Z,24.80
2022-12-27T10:22:14.570Z,24.60
2022-12-27T10:24:50.274Z,24.52
2022-12-27T10:29:58.300Z,25.40
2022-12-27T10:32:25.851Z,26.15
2022-12-27T10:35:01.300Z,26.55
2022-12-27T10:37:28.996Z,26.13
2022-12-27T10:40:05.547Z,25.85
2022-12-27T10:42:38.792Z,26.30
2022-12-27T10:45:33.456Z,25.00
2022-12-27T10:48:20.784Z,25.33
2022-12-27T10:50:53.074Z,26.00
2022-12-27T10:53:38.752Z,25.20
2022-12-27T10:56:28.768Z,27.08
2022-12-27T10:59:11.101Z,26.80
2022-12-27T11:01:38.298Z,24.20
2022-12-27T11:04:22.238Z,26.15
2022-12-27T11:07:12.867Z,25.80
2022-12-27T11:09:50.300Z,24.45
2022-12-27T11:12:29.213Z,24.50
2022-12-27T11:14:59.599Z,23.30
2022-12-27T11:17:29.649Z,23.58
2022-12-27T11:20:00.415Z,24.95
2022-12-27T11:22:27.666Z,23.63
2022-12-27T11:24:57.570Z,24.58
2022-12-27T11:27:27.691Z,24.23
2022-12-27T11:29:57.707Z,23.33
2022-12-27T11:32:25.199Z,23.63
2022-12-27T11:34:56.771Z,23.40
2022-12-27T11:37:27.139Z,23.92
2022-12-27T11:40:22.331Z,23.98
2022-12-27T11:43:01.351Z,23.02
2022-12-27T11:45:44.367Z,24.17
2022-12-27T11:48:25.219Z,22.35
2022-12-27T11:51:13.215Z,22.85
2022-12-27T11:53:57.979Z,22.90
2022-12-27T11:56:35.496Z,22.85
2022-12-27T11:59:29.220Z,22.67
2022-12-27T12:02:26.386Z,23.13
2022-12-27T12:05:30.660Z,21.92
2022-12-27T12:08:15.824Z,21.17
2022-12-27T12:11:24.280Z,21.45
2022-12-27T12:13:57.527Z,22.08
2022-12-27T12:17:01.873Z,22.05
2022-12-27T12:19:59.722Z,22.65
2022-12-27T12:22:54.949Z,20.20
2022-12-27T12:25:52.891Z,23.05
2022-12-27T12:28:58.628Z,20.90
2022-12-27T12:31:51.052Z,20.85
2022-12-27T12:34:48.487Z,20.73
2022-12-27T12:37:30.657Z,22.08
2022-12-27T12:40:26.135Z,22.25
2022-12-27T12:43:21.699Z,23.50
2022-12-27T12:46:16.142Z,23.33
2022-12-27T12:48:59.452Z,24.42
2022-12-27T12:51:44.462Z,24.63
2022-12-27T12:54:30.049Z,25.13
2022-12-27T12:57:09.083Z,24.70
2022-12-27T13:00:23.288Z,26.55
2022-12-27T13:03:38.198Z,26.40
2022-12-27T13:06:39.304Z,25.50
2022-12-27T13:09:29.873Z,26.15
2022-12-27T13:12:08.511Z,25.20
2022-12-27T13:15:05.892Z,26.35
2022-12-27T13:17:47.819Z,25.50
2022-12-27T13:20:26.843Z,27.45
2022-12-27T13:23:46.572Z,27.35
2022-12-27T13:26:55.235Z,26.30
2022-12-27T13:29:40.875Z,25.80
2022-12-27T13:32:13.758Z,26.45
2022-12-27T13:35:16.238Z,26.77
2022-12-27T13:38:18.589Z,27.67
2022-12-27T13:41:29.928Z,27.17
2022-12-27T13:44:31.570Z,27.88
2022-12-27T13:47:35.923Z,25.13
2022-12-27T13:50:23.509Z,25.10
2022-12-27T13:53:00.126Z,26.98
2022-12-27T13:55:42.677Z,31.33
2022-12-27T13:58:59.574Z,28.50
2022-12-27T14:01:29.622Z,28.35
2022-12-27T14:04:22.778Z,27.65
2022-12-27T14:07:08.332Z,27.70
2022-12-27T14:10:20.476Z,25.95
2022-12-27T14:13:00.034Z,27.15
2022-12-27T14:15:29.182Z,27.30
2022-12-27T14:18:30.064Z,33.63
2022-12-27T14:21:22.314Z,29.42
2022-12-27T14:24:25.910Z,26.80
2022-12-27T14:27:01.959Z,35.20
2022-12-27T14:29:39.921Z,26.67
2022-12-27T14:32:38.003Z,28.80
2022-12-27T14:35:30.089Z,27.63
2022-12-27T14:38:06.440Z,28.35
2022-12-27T14:40:48.681Z,27.98
2022-12-27T14:44:00.155Z,34.30
2022-12-27T14:46:51.100Z,34.60
2022-12-27T14:49:33.575Z,33.05
2022-12-27T14:52:04.491Z,34.15
2022-12-27T14:55:04.523Z,27.90
2022-12-27T14:57:36.114Z,33.28
2022-12-27T15:00:24.335Z,26.40
2022-12-27T15:03:04.109Z,27.48
2022-12-27T15:05:37.402Z,35.67
2022-12-27T15:08:30.536Z,30.02
2022-12-27T15:10:57.550Z,30.75
2022-12-27T15:13:55.428Z,30.17
2022-12-27T15:16:30.999Z,30.13
2022-12-27T15:21:50.595Z,29.65
2022-12-27T15:24:55.062Z,31.42
2022-12-27T15:27:27.465Z,32.67
2022-12-27T15:30:16.314Z,31.90
2022-12-27T15:32:52.670Z,31.80
2022-12-27T15:35:41.099Z,32.95
2022-12-27T15:38:12.420Z,34.15
2022-12-27T15:40:59.378Z,34.60
2022-12-27T15:43:26.407Z,35.08
2022-12-27T15:46:08.393Z,35.42
2022-12-27T15:49:12.561Z,34.97
2022-12-27T15:51:53.764Z,34.17
2022-12-27T15:54:47.564Z,34.30
2022-12-27T15:57:47.954Z,35.28
2022-12-27T16:00:34.475Z,33.33
2022-12-27T16:03:05.584Z,34.22
2022-12-27T16:05:47.829Z,32.20
2022-12-27T16:08:28.808Z,34.17
2022-12-27T16:10:56.821Z,35.78
2022-12-27T16:13:37.606Z,35.22
2022-12-27T16:16:33.384Z,34.78
2022-12-27T16:19:20.659Z,36.70
2022-12-27T16:21:47.902Z,32.40
2022-12-27T16:24:22.487Z,33.63
2022-12-27T16:26:57.537Z,33.53
2022-12-27T16:29:29.496Z,34.03
2022-12-27T16:32:21.676Z,34.15
2022-12-27T16:34:52.167Z,35.53
2022-12-27T16:37:44.491Z,32.25
2022-12-27T16:40:30.821Z,33.60
2022-12-27T16:43:20.362Z,31.92
2022-12-27T16:46:06.468Z,30.20
2022-12-27T16:49:07.033Z,31.77
2022-12-27T16:52:15.023Z,33.38
2022-12-27T16:54:47.798Z,30.83
2022-12-27T16:57:26.980Z,33.70
2022-12-27T17:00:01.945Z,35.30
2022-12-27T17:02:47.608Z,34.63
2022-12-27T17:05:14.605Z,33.47
2022-12-27T17:07:57.945Z,32.35
2022-12-27T17:10:27.745Z,29.92
2022-12-27T17:13:03.892Z,33.15
2022-12-27T17:15:32.047Z,32.95
2022-12-27T17:18:09.184Z,31.92
2022-12-27T17:20:40.998Z,31.48
2022-12-27T17:23:08.001Z,32.97
2022-12-27T17:25:48.559Z,29.55
2022-12-27T17:28:28.677Z,30.83
2022-12-27T17:31:11.921Z,31.20
2022-12-27T17:34:23.415Z,30.58
2022-12-27T17:36:56.259Z,30.85
2022-12-27T17:39:40.650Z,30.88
2022-12-27T17:42:42.331Z,29.48
2022-12-27T17:45:31.384Z,29.77
2022-12-27T17:48:25.414Z,31.02
2022-12-27T17:50:56.219Z,30.63
2022-12-27T17:53:42.809Z,30.48
2022-12-27T17:56:39.524Z,30.75
2022-12-27T17:59:12.055Z,29.98
2022-12-27T18:01:46.779Z,29.77
2022-12-27T18:04:29.552Z,29.23
2022-12-27T18:07:05.135Z,31.40
2022-12-27T18:09:45.866Z,30.92
2022-12-27T18:12:20.219Z,31.13
2022-12-27T18:15:18.194Z,31.20
2022-12-27T18:17:50.705Z,32.22
2022-12-27T18:20:26.688Z,32.70
2022-12-27T18:23:02.441Z,32.38
2022-12-27T18:27:59.363Z,33.42
2022-12-27T18:30:28.835Z,33.33
2022-12-27T18:32:57.805Z,31.83
2022-12-27T18:35:26.329Z,32.67
2022-12-27T18:37:54.634Z,30.40
2022-12-27T18:40:26.227Z,30.58
2022-12-27T18:42:54.505Z,32.80
2022-12-27T18:45:29.166Z,30.50
2022-12-27T18:48:00.213Z,30.80
2022-12-27T18:50:30.020Z,32.53
2022-12-27T18:53:36.950Z,33.42
2022-12-27T18:58:33.804Z,30.83
2022-12-27T19:01:25.577Z,31.50
2022-12-27T19:04:15.146Z,32.08
2022-12-27T19:07:19.175Z,31.70
2022-12-27T19:09:50.568Z,29.83
2022-12-27T19:12:34.031Z,32.33
2022-12-27T19:15:01.976Z,30.75
2022-12-27T19:17:31.704Z,30.55
2022-12-27T19:20:02.797Z,30.35
2022-12-27T19:22:48.201Z,32.28
2022-12-27T19:25:20.820Z,33.03
2022-12-27T19:28:11.907Z,33.47
2022-12-27T19:30:45.434Z,33.60
2022-12-27T19:33:25.213Z,32.65
2022-12-27T19:35:52.987Z,32.97
2022-12-27T19:38:23.634Z,31.95
2022-12-27T19:40:59.534Z,32.03
2022-12-27T19:43:45.036Z,31.30
2022-12-27T19:46:13.776Z,30.58
2022-12-27T19:48:41.091Z,28.27
2022-12-27T19:51:15.167Z,28.90
2022-12-27T19:53:44.289Z,28.92
2022-12-27T19:56:11.970Z,28.08
2022-12-27T19:58:39.106Z,25.90
2022-12-27T20:01:06.781Z,28.10
2022-12-27T20:03:33.731Z,28.00
2022-12-27T20:06:13.921Z,27.23
2022-12-27T20:08:49.193Z,27.58
2022-12-27T20:11:18.855Z,27.50
2022-12-27T20:13:46.637Z,26.58
2022-12-27T20:16:17.979Z,27.52
2022-12-27T20:18:46.020Z,27.25
2022-12-27T20:21:15.533Z,28.75
2022-12-27T20:23:42.703Z,27.00
2022-12-27T20:26:10.717Z,27.95
2022-12-27T20:28:37.741Z,29.05
2022-12-27T20:31:08.990Z,28.38
2022-12-27T20:33:36.592Z,28.30
2022-12-27T20:36:03.899Z,29.20
2022-12-27T20:38:31.314Z,26.02
2022-12-27T20:41:09.283Z,28.08
2022-12-27T20:43:37.016Z,27.90
2022-12-27T20:46:08.920Z,27.45
2022-12-27T20:48:43.195Z,27.73
2022-12-27T20:51:14.247Z,27.98
2022-12-27T20:53:41.240Z,28.15
2022-12-27T20:56:09.109Z,29.17
2022-12-27T20:58:36.234Z,27.80
2022-12-27T21:01:15.599Z,29.25
2022-12-27T21:03:43.860Z,28.42
2022-12-27T21:06:22.263Z,30.95
2022-12-27T21:08:56.180Z,28.17
2022-12-27T21:11:27.245Z,30.67
2022-12-27T21:13:54.947Z,29.13
2022-12-27T21:16:27.282Z,27.50
2022-12-27T21:18:56.100Z,28.73
2022-12-27T21:21:28.479Z,29.02
2022-12-27T21:23:57.900Z,28.80
2022-12-27T21:26:27.545Z,27.83
2022-12-27T21:28:55.213Z,28.50
2022-12-27T21:31:22.849Z,28.35
2022-12-27T21:33:50.010Z,29.20
2022-12-27T21:36:28.889Z,28.90
2022-12-27T21:38:56.352Z,43.40
2022-12-27T21:41:25.964Z,31.10
2022-12-27T21:43:53.532Z,31.40
2022-12-27T21:46:23.646Z,29.58
2022-12-27T21:49:05.537Z,30.50
2022-12-27T21:51:34.843Z,28.92
2022-12-27T21:54:02.521Z,31.50
2022-12-27T21:56:30.073Z,29.30
2022-12-27T21:58:58.796Z,30.70
2022-12-27T22:01:49.677Z,31.15
2022-12-27T22:04:18.238Z,28.80
2022-12-27T22:06:47.489Z,30.92
2022-12-27T22:09:15.541Z,29.10
2022-12-27T22:11:42.726Z,29.63
2022-12-27T22:14:09.706Z,29.13
2022-12-27T22:16:38.746Z,31.63
2022-12-27T22:19:08.062Z,29.27
2022-12-27T22:21:36.286Z,31.92
2022-12-27T22:24:04.070Z,33.35
2022-12-27T22:26:39.208Z,32.33
2022-12-27T22:29:06.665Z,34.45
2022-12-27T22:31:38.139Z,32.95
2022-12-27T22:34:06.119Z,30.27
2022-12-27T22:36:33.990Z,32.13
2022-12-27T22:39:02.058Z,32.13
2022-12-27T22:41:32.170Z,35.17
2022-12-27T22:44:02.035Z,33.53
2022-12-27T22:46:51.127Z,35.00
2022-12-27T22:49:17.700Z,37.85
2022-12-27T22:51:44.975Z,31.25
2022-12-27T22:54:12.028Z,30.52
2022-12-27T22:56:41.544Z,29.60
2022-12-27T22:59:11.585Z,29.52
2022-12-27T23:01:39.547Z,28.95
2022-12-27T23:04:08.035Z,30.23
2022-12-27T23:06:36.671Z,31.83
2022-12-27T23:09:04.640Z,30.42
2022-12-27T23:11:35.576Z,31.40
2022-12-27T23:14:05.714Z,31.30
2022-12-27T23:16:38.405Z,30.90
2022-12-27T23:19:06.328Z,30.80
2022-12-27T23:21:33.317Z,30.52
2022-12-27T23:24:00.313Z,30.27
2022-12-27T23:26:27.799Z,29.65
2022-12-27T23:28:55.296Z,32.13
2022-12-27T23:31:23.629Z,29.05
2022-12-27T23:33:50.821Z,31.10
2022-12-27T23:36:18.230Z,31.73
2022-12-27T23:38:45.611Z,32.17
2022-12-27T23:41:23.740Z,30.23
2022-12-27T23:43:53.901Z,31.90
2022-12-27T23:46:25.013Z,30.90
2022-12-27T23:48:52.337Z,29.90
2022-12-27T23:51:20.520Z,30.15
2022-12-27T23:53:47.705Z,30.55
2022-12-27T23:56:20.619Z,30.15
2022-12-27T23:58:48.783Z,30.80
